Toulon, Illinois
Current Conditions -  °F | °C
As of 2:35 PM on Friday 28 Nov 2014 (Local Time) from KC75 Reporting Station
Clear Clear  
Wind Chill: 28°   Ceiling: Unl
Heat Index: 36°   Visibility: 10mi
Dew Point: 28°   Wind: 12mph
Humidity: 74%   Direction: 180°S
Pressure: 29.94"   Gusts: 17mph
Location:  41.09°N, 89.86°W
Report Text: KC75 282035Z AUTO 18010G15KT 10SM CLR 02/M02 A2994 RMK AO2 T00221020
Loading
Personal Weather Stations






























Interactive Weather Map New forecast layout! Learn more

10-Day Weather Forecast

Advertisements
Track Severe Weather on mobile